Icara, Brazil
Current Conditions -  °F | °C
As of 12:00 PM on Monday 26 Jan 2015 (Local Time) from SBCM Reporting Station
Few Clouds Few Clouds  
Wind Chill: 90°   Ceiling: Unl
Heat Index: 95°   Visibility: 6mi
Dew Point: 70°   Wind: 3mph
Humidity: 52%   Direction: 200°SSW
Pressure: 29.88"   Gusts: NA
Location:  28.71°S, 49.3°W
Report Text: SBCM 261400Z 20003KT 9999 FEW030 32/21 Q1012
Loading
Personal Weather Stations






























Interactive Weather Map New forecast layout! Learn more

10-Day Weather Forecast

Advertisements
Track Severe Weather on mobile